createdAt,value
2017-05-22T00:01:38.292Z,9.06
2017-05-22T00:04:07.294Z,9.48
2017-05-22T00:06:36.217Z,9.88
2017-05-22T00:09:05.139Z,9.18
2017-05-22T00:11:34.059Z,9.76
2017-05-22T00:14:03.102Z,9.22
2017-05-22T00:16:31.998Z,9.36
2017-05-22T00:19:00.906Z,9.54
2017-05-22T00:21:29.862Z,10.28
2017-05-22T00:23:58.786Z,9.56
2017-05-22T00:26:27.722Z,10.02
2017-05-22T00:28:56.687Z,9.18
2017-05-22T00:31:25.594Z,10.90
2017-05-22T00:33:54.546Z,9.88
2017-05-22T00:36:23.477Z,9.02
2017-05-22T00:38:52.387Z,9.30
2017-05-22T00:41:21.294Z,9.38
2017-05-22T00:43:50.234Z,9.48
2017-05-22T00:46:19.151Z,10.52
2017-05-22T00:48:48.074Z,9.86
2017-05-22T00:51:17.030Z,9.68
2017-05-22T00:53:45.982Z,9.58
2017-05-22T00:56:14.898Z,9.50
2017-05-22T00:58:43.830Z,9.28
2017-05-22T01:01:12.738Z,9.46
2017-05-22T01:03:41.650Z,9.82
2017-05-22T01:06:10.665Z,9.90
2017-05-22T01:08:39.562Z,10.54
2017-05-22T01:11:08.465Z,9.94
2017-05-22T01:13:37.410Z,9.96
2017-05-22T01:16:06.316Z,9.14
2017-05-22T01:18:35.227Z,10.00
2017-05-22T01:21:04.147Z,10.12
2017-05-22T01:23:33.056Z,9.76
2017-05-22T01:26:01.966Z,10.30
2017-05-22T01:28:30.932Z,10.76
2017-05-22T01:30:59.846Z,10.36
2017-05-22T01:33:28.759Z,10.68
2017-05-22T01:35:57.910Z,10.18
2017-05-22T01:38:26.823Z,10.14
2017-05-22T01:40:56.731Z,10.72
2017-05-22T01:43:25.659Z,11.16
2017-05-22T01:45:54.809Z,9.76
2017-05-22T01:48:23.719Z,8.48
2017-05-22T01:50:52.658Z,10.92
2017-05-22T01:53:21.562Z,9.68
2017-05-22T01:55:50.510Z,11.46
2017-05-22T01:58:19.890Z,11.20
2017-05-22T02:00:48.807Z,9.60
2017-05-22T02:03:17.725Z,10.24
2017-05-22T02:05:46.662Z,11.04
2017-05-22T02:08:15.739Z,11.00
2017-05-22T02:10:44.657Z,9.88
2017-05-22T02:13:13.577Z,10.12
2017-05-22T02:15:42.486Z,10.94
2017-05-22T02:18:11.398Z,10.88
2017-05-22T02:20:40.345Z,11.32
2017-05-22T02:23:09.266Z,10.64
2017-05-22T02:25:38.261Z,10.28
2017-05-22T02:28:07.226Z,11.34
2017-05-22T02:30:36.131Z,11.28
2017-05-22T02:33:05.043Z,11.54
2017-05-22T02:35:33.983Z,11.30
2017-05-22T02:38:02.904Z,10.76
2017-05-22T02:40:31.811Z,13.34
2017-05-22T02:43:00.743Z,10.94
2017-05-22T02:45:29.669Z,10.90
2017-05-22T02:47:58.577Z,12.44
2017-05-22T02:50:27.521Z,10.80
2017-05-22T02:52:56.422Z,11.92
2017-05-22T02:55:25.342Z,12.68
2017-05-22T02:57:54.303Z,10.74
2017-05-22T03:00:23.224Z,10.42
2017-05-22T03:02:52.132Z,10.40
2017-05-22T03:05:21.074Z,11.32
2017-05-22T03:07:50.150Z,11.18
2017-05-22T03:10:19.057Z,12.14
2017-05-22T03:12:47.986Z,11.18
2017-05-22T03:15:16.929Z,10.78
2017-05-22T03:17:45.831Z,11.78
2017-05-22T03:20:14.772Z,11.98
2017-05-22T03:22:43.686Z,11.10
2017-05-22T03:25:12.611Z,10.72
2017-05-22T03:27:41.566Z,10.76
2017-05-22T03:30:10.493Z,10.36
2017-05-22T03:32:39.415Z,11.06
2017-05-22T03:35:08.397Z,10.22
2017-05-22T03:37:37.314Z,11.00
2017-05-22T03:40:06.234Z,11.80
2017-05-22T03:42:35.199Z,10.90
2017-05-22T03:45:04.122Z,10.92
2017-05-22T03:47:33.026Z,10.54
2017-05-22T03:50:01.980Z,12.56
2017-05-22T03:52:30.894Z,12.86
2017-05-22T03:54:59.846Z,12.20
2017-05-22T03:57:28.818Z,11.04
2017-05-22T03:59:57.858Z,11.70
2017-05-22T04:02:26.781Z,11.66
2017-05-22T04:04:55.734Z,10.42
2017-05-22T04:07:24.666Z,12.56
2017-05-22T04:09:53.594Z,12.00
2017-05-22T04:12:22.525Z,11.04
2017-05-22T04:14:51.455Z,11.10
2017-05-22T04:17:20.360Z,10.14
2017-05-22T04:19:49.310Z,10.88
2017-05-22T04:22:18.234Z,11.70
2017-05-22T04:24:47.140Z,10.98
2017-05-22T04:27:16.087Z,11.10
2017-05-22T04:29:45.006Z,10.32
2017-05-22T04:32:13.918Z,10.74
2017-05-22T04:34:42.854Z,10.82
2017-05-22T04:37:11.780Z,11.38
2017-05-22T04:39:40.698Z,10.40
2017-05-22T04:42:09.681Z,10.46
2017-05-22T04:44:38.595Z,11.20
2017-05-22T04:47:07.521Z,11.18
2017-05-22T04:49:36.459Z,12.04
2017-05-22T04:52:05.366Z,12.04
2017-05-22T04:54:34.277Z,11.54
2017-05-22T04:57:03.300Z,11.28
2017-05-22T04:59:32.303Z,10.10
2017-05-22T05:02:01.222Z,10.24
2017-05-22T05:04:30.158Z,10.80
2017-05-22T05:06:59.120Z,16.98
2017-05-22T05:09:28.030Z,10.58
2017-05-22T05:11:56.966Z,9.44
2017-05-22T05:14:25.866Z,9.54
2017-05-22T05:16:54.791Z,10.62
2017-05-22T05:19:23.720Z,10.60
2017-05-22T05:21:52.638Z,10.00
2017-05-22T05:24:21.599Z,10.14
2017-05-22T05:26:50.546Z,11.46
2017-05-22T05:29:19.454Z,11.50
2017-05-22T05:31:48.369Z,11.42
2017-05-22T05:34:17.307Z,10.10
2017-05-22T05:36:46.213Z,11.04
2017-05-22T05:39:15.131Z,10.74
2017-05-22T05:41:44.199Z,9.52
2017-05-22T05:44:13.102Z,10.40
2017-05-22T05:46:42.003Z,10.74
2017-05-22T05:49:10.954Z,12.34
2017-05-22T05:51:39.882Z,11.58
2017-05-22T05:54:08.803Z,12.50
2017-05-22T05:56:37.730Z,12.70
2017-05-22T05:59:06.652Z,12.78
2017-05-22T06:01:35.562Z,12.32
2017-05-22T06:04:04.562Z,12.78
2017-05-22T06:06:33.523Z,13.62
2017-05-22T06:09:02.441Z,11.82
2017-05-22T06:11:31.383Z,11.90
2017-05-22T06:14:00.308Z,11.14
2017-05-22T06:16:29.333Z,11.38
2017-05-22T06:18:58.386Z,12.52
2017-05-22T06:21:27.307Z,12.02
2017-05-22T06:23:56.240Z,12.06
2017-05-22T06:26:25.619Z,11.48
2017-05-22T06:28:54.545Z,10.20
2017-05-22T06:31:23.465Z,10.36
2017-05-22T06:33:52.540Z,11.10
2017-05-22T06:36:21.411Z,9.36
2017-05-22T06:38:50.366Z,16.54
2017-05-22T06:41:19.290Z,9.94
2017-05-22T06:43:48.199Z,10.62
2017-05-22T06:46:17.111Z,21.00
2017-05-22T06:48:46.058Z,14.10
2017-05-22T06:51:14.958Z,10.14
2017-05-22T06:53:43.871Z,10.42
2017-05-22T06:56:12.815Z,11.08
2017-05-22T06:58:41.738Z,10.44
2017-05-22T07:01:10.651Z,11.48
2017-05-22T07:03:39.642Z,10.58
2017-05-22T07:06:08.554Z,9.40
2017-05-22T07:08:37.478Z,10.24
2017-05-22T07:11:06.570Z,9.74
2017-05-22T07:13:35.481Z,11.14
2017-05-22T07:16:04.450Z,12.60
2017-05-22T07:18:33.462Z,10.76
2017-05-22T07:21:02.374Z,9.48
2017-05-22T07:23:31.304Z,9.78
2017-05-22T07:26:00.277Z,9.08
2017-05-22T07:28:29.194Z,10.44
2017-05-22T07:30:57.711Z,9.06
2017-05-22T07:33:26.652Z,11.58
2017-05-22T07:35:55.589Z,9.42
2017-05-22T07:38:24.494Z,9.94
2017-05-22T07:40:53.510Z,7.90
2017-05-22T07:43:22.406Z,8.50
2017-05-22T07:45:51.315Z,9.04
2017-05-22T07:48:20.278Z,9.46
2017-05-22T07:50:49.202Z,8.10
2017-05-22T07:53:18.184Z,8.40
2017-05-22T07:55:47.141Z,7.40
2017-05-22T07:58:16.033Z,8.26
2017-05-22T08:00:44.962Z,7.62
2017-05-22T08:03:13.866Z,7.42
2017-05-22T08:05:42.779Z,8.10
2017-05-22T08:08:11.706Z,7.48
2017-05-22T08:10:40.606Z,7.60
2017-05-22T08:13:09.518Z,7.24
2017-05-22T08:15:38.475Z,6.32
2017-05-22T08:18:07.390Z,6.02
2017-05-22T08:20:36.302Z,5.96
2017-05-22T08:23:05.243Z,6.20
2017-05-22T08:25:34.201Z,4.78
2017-05-22T08:28:03.110Z,5.70
2017-05-22T08:30:32.046Z,5.22
2017-05-22T08:33:00.960Z,7.10
2017-05-22T08:35:29.875Z,5.64
2017-05-22T08:37:58.931Z,6.14
2017-05-22T08:40:27.855Z,5.20
2017-05-22T08:42:56.776Z,5.24
2017-05-22T08:45:25.684Z,5.78
2017-05-22T08:47:55.136Z,4.40
2017-05-22T08:50:24.058Z,4.36
2017-05-22T08:52:52.990Z,4.70
2017-05-22T08:55:21.899Z,4.10
2017-05-22T08:57:50.802Z,4.18
2017-05-22T09:00:19.750Z,4.98
2017-05-22T09:02:48.661Z,4.52
2017-05-22T09:05:17.586Z,4.68
2017-05-22T09:07:46.558Z,4.22
2017-05-22T09:10:15.481Z,4.20
2017-05-22T09:12:44.385Z,4.30
2017-05-22T09:15:13.302Z,4.78
2017-05-22T09:17:42.244Z,3.70
2017-05-22T09:20:11.147Z,3.42
2017-05-22T09:22:40.087Z,3.70
2017-05-22T09:25:08.982Z,5.20
2017-05-22T09:27:37.895Z,3.42
2017-05-22T09:30:06.856Z,2.68
2017-05-22T09:32:35.714Z,4.04
2017-05-22T09:35:04.612Z,2.74
2017-05-22T09:37:33.570Z,3.44
2017-05-22T09:40:02.459Z,2.56
2017-05-22T09:42:31.370Z,2.56
2017-05-22T09:45:00.341Z,3.00
2017-05-22T09:47:29.232Z,2.72
2017-05-22T09:49:58.134Z,3.46
2017-05-22T09:52:27.199Z,3.52
2017-05-22T09:54:56.115Z,3.20
2017-05-22T09:57:25.015Z,2.82
2017-05-22T09:59:54.054Z,3.10
2017-05-22T10:02:22.938Z,2.64
2017-05-22T10:04:51.906Z,2.78
2017-05-22T10:07:20.821Z,2.66
2017-05-22T10:09:50.436Z,2.44
2017-05-22T10:12:19.382Z,2.78
2017-05-22T10:14:48.283Z,2.52
2017-05-22T10:17:17.186Z,2.28
2017-05-22T10:19:46.128Z,2.80
2017-05-22T10:22:15.034Z,2.54
2017-05-22T10:24:44.006Z,2.46
2017-05-22T10:27:12.934Z,2.30
2017-05-22T10:29:41.858Z,2.92
2017-05-22T10:32:10.772Z,3.04
2017-05-22T10:34:39.692Z,2.44
2017-05-22T10:37:08.695Z,2.40
2017-05-22T10:39:37.643Z,2.90
2017-05-22T10:42:06.622Z,2.64
2017-05-22T10:44:35.642Z,2.96
2017-05-22T10:47:04.580Z,2.68
2017-05-22T10:49:34.311Z,2.96
2017-05-22T10:52:03.200Z,2.80
2017-05-22T10:54:32.113Z,2.60
2017-05-22T10:57:01.050Z,2.38
2017-05-22T10:59:29.955Z,2.66
2017-05-22T11:01:58.874Z,2.38
2017-05-22T11:04:28.163Z,2.52
2017-05-22T11:06:57.087Z,3.12
2017-05-22T11:09:26.010Z,2.74
2017-05-22T11:11:54.954Z,2.78
2017-05-22T11:14:23.883Z,2.38
2017-05-22T11:16:52.833Z,2.22
2017-05-22T11:19:21.781Z,2.32
2017-05-22T11:21:50.675Z,2.52
2017-05-22T11:24:19.587Z,2.70
2017-05-22T11:26:48.505Z,2.46
2017-05-22T11:29:17.414Z,2.30
2017-05-22T11:31:46.347Z,2.34
2017-05-22T11:34:15.374Z,2.82
2017-05-22T11:36:44.398Z,3.56
2017-05-22T11:39:13.325Z,2.62
2017-05-22T11:41:42.209Z,2.64
2017-05-22T11:44:11.143Z,2.64
2017-05-22T11:46:40.051Z,2.18
2017-05-22T11:49:08.961Z,2.60
2017-05-22T11:51:38.037Z,2.12
2017-05-22T11:54:07.476Z,4.94
2017-05-22T11:56:37.163Z,2.44
2017-05-22T11:59:06.054Z,2.64
2017-05-22T12:01:35.005Z,2.18
2017-05-22T12:04:04.101Z,2.30
2017-05-22T12:06:33.010Z,3.12
2017-05-22T12:09:01.942Z,2.44
2017-05-22T12:11:30.970Z,2.60
2017-05-22T12:13:59.878Z,2.78
2017-05-22T12:16:28.802Z,2.70
2017-05-22T12:18:57.727Z,2.70
2017-05-22T12:21:26.654Z,2.90
2017-05-22T12:23:55.691Z,3.08
2017-05-22T12:26:25.239Z,3.10
2017-05-22T12:28:54.198Z,2.80
2017-05-22T12:31:23.250Z,3.76
2017-05-22T12:33:52.222Z,2.58
2017-05-22T12:36:21.210Z,2.40
2017-05-22T12:38:50.250Z,2.76
2017-05-22T12:41:19.703Z,3.18
2017-05-22T12:43:48.646Z,3.48
2017-05-22T12:46:17.590Z,3.04
2017-05-22T12:48:46.513Z,4.44
2017-05-22T12:51:15.470Z,2.60
2017-05-22T12:53:44.455Z,4.62
2017-05-22T12:56:13.350Z,2.50
2017-05-22T12:58:42.255Z,3.48
2017-05-22T13:01:11.186Z,2.80
2017-05-22T13:03:40.085Z,3.14
2017-05-22T13:06:09.016Z,7.08
2017-05-22T13:08:37.962Z,3.02
2017-05-22T13:11:06.899Z,2.68
2017-05-22T13:13:35.799Z,2.82
2017-05-22T13:16:04.719Z,2.50
2017-05-22T13:18:33.716Z,2.64
2017-05-22T13:21:02.659Z,2.60
2017-05-22T13:23:31.574Z,2.90
2017-05-22T13:26:00.551Z,2.78
2017-05-22T13:28:29.467Z,4.78
2017-05-22T13:30:58.377Z,3.22
2017-05-22T13:33:27.303Z,3.88
2017-05-22T13:35:56.291Z,2.92
2017-05-22T13:38:25.231Z,3.02
2017-05-22T13:40:54.173Z,2.92
2017-05-22T13:43:23.091Z,3.12
2017-05-22T13:45:52.025Z,2.66
2017-05-22T13:48:20.943Z,2.58
2017-05-22T13:50:49.875Z,2.98
2017-05-22T13:53:18.811Z,2.64
2017-05-22T13:55:47.723Z,3.10
2017-05-22T13:58:16.623Z,2.84
2017-05-22T14:00:45.585Z,2.78
2017-05-22T14:03:14.493Z,2.92
2017-05-22T14:05:43.410Z,2.78
2017-05-22T14:08:12.343Z,2.92
2017-05-22T14:10:41.256Z,2.98
2017-05-22T14:13:10.305Z,2.54
2017-05-22T14:15:39.226Z,6.24
2017-05-22T14:18:08.227Z,2.80
2017-05-22T14:20:37.218Z,3.22
2017-05-22T14:23:06.123Z,2.90
2017-05-22T14:25:35.053Z,2.60
2017-05-22T14:28:03.197Z,2.88
2017-05-22T14:30:32.093Z,2.82
2017-05-22T14:33:01.056Z,2.54
2017-05-22T14:35:30.014Z,2.84
2017-05-22T14:37:58.929Z,3.26
2017-05-22T14:40:27.865Z,3.26
2017-05-22T14:42:56.792Z,2.62
2017-05-22T14:45:25.783Z,3.30
2017-05-22T14:47:54.735Z,3.04
2017-05-22T14:50:23.640Z,3.38
2017-05-22T14:52:52.653Z,3.16
2017-05-22T14:55:22.463Z,5.00
2017-05-22T14:57:51.386Z,6.08
2017-05-22T15:00:20.981Z,3.42
2017-05-22T15:02:49.945Z,3.50
2017-05-22T15:05:18.885Z,2.64
2017-05-22T15:07:47.808Z,3.38
2017-05-22T15:10:16.826Z,2.92
2017-05-22T15:12:45.755Z,3.40
2017-05-22T15:15:14.691Z,2.60
2017-05-22T15:17:43.607Z,4.54
2017-05-22T15:20:12.558Z,2.84
2017-05-22T15:22:41.467Z,4.80
2017-05-22T15:25:10.799Z,3.36
2017-05-22T15:27:39.701Z,3.48
2017-05-22T15:30:08.633Z,3.02
2017-05-22T15:32:38.234Z,2.84
2017-05-22T15:35:07.738Z,3.48
2017-05-22T15:37:36.722Z,3.60
2017-05-22T15:40:05.625Z,2.74
2017-05-22T15:42:34.560Z,2.94
2017-05-22T15:45:03.501Z,3.76
2017-05-22T15:47:32.429Z,4.98
2017-05-22T15:50:02.235Z,3.58
2017-05-22T15:52:31.196Z,2.78
2017-05-22T15:55:00.109Z,2.88
2017-05-22T15:57:29.034Z,3.28
2017-05-22T15:59:58.043Z,3.26
2017-05-22T16:02:27.061Z,2.70
2017-05-22T16:04:56.821Z,2.92
2017-05-22T16:07:25.729Z,3.50
2017-05-22T16:09:54.649Z,3.44
2017-05-22T16:12:23.590Z,3.28
2017-05-22T16:14:52.507Z,3.50
2017-05-22T16:17:21.424Z,2.66
2017-05-22T16:19:50.521Z,3.74
2017-05-22T16:22:19.402Z,3.06
2017-05-22T16:24:48.363Z,3.34
2017-05-22T16:27:17.299Z,3.04
2017-05-22T16:29:46.219Z,3.80
2017-05-22T16:32:15.225Z,4.46
2017-05-22T16:34:44.130Z,2.98
2017-05-22T16:37:13.055Z,3.34
2017-05-22T16:39:41.987Z,3.32
2017-05-22T16:42:10.895Z,4.56
2017-05-22T16:44:39.834Z,3.18
2017-05-22T16:47:09.132Z,3.14
2017-05-22T16:49:38.054Z,2.94
2017-05-22T16:52:06.982Z,4.50
2017-05-22T16:54:35.937Z,3.30
2017-05-22T16:57:04.967Z,3.92
2017-05-22T16:59:33.945Z,3.84
2017-05-22T17:02:02.872Z,3.02
2017-05-22T17:04:31.948Z,3.34
2017-05-22T17:07:00.862Z,2.92
2017-05-22T17:09:29.811Z,3.18
2017-05-22T17:12:00.611Z,3.22
2017-05-22T17:14:30.391Z,2.84
2017-05-22T17:16:59.322Z,3.42
2017-05-22T17:19:31.146Z,5.46
2017-05-22T17:22:00.061Z,3.50
2017-05-22T17:24:29.009Z,3.44
2017-05-22T17:26:57.991Z,4.84
2017-05-22T17:29:26.909Z,4.30
2017-05-22T17:31:55.827Z,4.24
2017-05-22T17:34:24.766Z,8.38
2017-05-22T17:36:53.700Z,3.64
2017-05-22T17:39:22.630Z,4.20
2017-05-22T17:41:51.494Z,3.68
2017-05-22T17:44:20.444Z,3.62
2017-05-22T17:46:49.367Z,3.84
2017-05-22T17:49:18.282Z,3.94
2017-05-22T17:51:47.196Z,3.92
2017-05-22T17:54:16.128Z,3.22
2017-05-22T17:56:45.049Z,3.32
2017-05-22T17:59:14.136Z,3.16
2017-05-22T18:01:43.108Z,3.74
2017-05-22T18:04:12.020Z,3.38
2017-05-22T18:06:40.958Z,3.16
2017-05-22T18:09:09.916Z,3.86
2017-05-22T18:11:38.920Z,3.30
2017-05-22T18:14:07.836Z,3.96
2017-05-22T18:16:36.772Z,3.80
2017-05-22T18:19:05.698Z,4.06
2017-05-22T18:21:34.630Z,3.78
2017-05-22T18:24:03.978Z,4.22
2017-05-22T18:26:32.905Z,3.80
2017-05-22T18:29:01.818Z,3.88
2017-05-22T18:31:30.776Z,4.18
2017-05-22T18:33:59.708Z,3.58
2017-05-22T18:36:28.686Z,3.48
2017-05-22T18:38:57.662Z,4.06
2017-05-22T18:41:26.567Z,3.06
2017-05-22T18:43:55.554Z,3.88
2017-05-22T18:46:24.465Z,3.26
2017-05-22T18:48:53.391Z,11.40
2017-05-22T18:51:22.347Z,6.44
2017-05-22T18:53:51.265Z,4.28
2017-05-22T18:56:20.203Z,3.64
2017-05-22T18:58:49.179Z,4.08
2017-05-22T19:01:18.106Z,3.68
2017-05-22T19:03:47.025Z,3.78
2017-05-22T19:06:15.946Z,4.30
2017-05-22T19:08:44.875Z,4.28
2017-05-22T19:11:13.791Z,3.84
2017-05-22T19:13:42.743Z,4.00
2017-05-22T19:16:11.653Z,3.88
2017-05-22T19:18:40.596Z,4.12
2017-05-22T19:21:09.502Z,4.86
2017-05-22T19:23:39.149Z,5.72
2017-05-22T19:26:08.058Z,4.00
2017-05-22T19:28:36.979Z,7.48
2017-05-22T19:31:05.891Z,5.32
2017-05-22T19:33:34.801Z,4.02
2017-05-22T19:36:03.867Z,4.32
2017-05-22T19:38:32.766Z,7.04
2017-05-22T19:41:01.723Z,4.28
2017-05-22T19:43:30.655Z,4.72
2017-05-22T19:45:59.799Z,4.92
2017-05-22T19:48:28.764Z,4.96
2017-05-22T19:50:58.324Z,3.84
2017-05-22T19:53:27.207Z,4.12
2017-05-22T19:55:56.164Z,4.36
2017-05-22T19:58:25.098Z,3.92
2017-05-22T20:00:54.048Z,4.18
2017-05-22T20:03:22.977Z,4.76
2017-05-22T20:05:51.918Z,4.08
2017-05-22T20:08:20.836Z,4.34
2017-05-22T20:10:49.835Z,7.88
2017-05-22T20:13:19.343Z,4.58
2017-05-22T20:15:48.456Z,5.18
2017-05-22T20:18:17.364Z,4.10
2017-05-22T20:20:46.301Z,4.14
2017-05-22T20:23:15.214Z,4.84
2017-05-22T20:25:44.123Z,4.74
2017-05-22T20:28:13.095Z,4.10
2017-05-22T20:30:42.004Z,3.96
2017-05-22T20:33:10.931Z,5.28
2017-05-22T20:35:39.917Z,5.04
2017-05-22T20:38:08.986Z,8.24
2017-05-22T20:40:37.896Z,5.98
2017-05-22T20:43:06.834Z,5.10
2017-05-22T20:45:35.835Z,4.96
2017-05-22T20:48:04.773Z,5.04
2017-05-22T20:50:33.739Z,4.94
2017-05-22T20:53:02.792Z,5.00
2017-05-22T20:55:31.694Z,4.50
2017-05-22T20:58:00.659Z,4.52
2017-05-22T21:00:29.624Z,5.68
2017-05-22T21:02:59.140Z,4.76
2017-05-22T21:05:28.077Z,6.08
2017-05-22T21:07:57.008Z,4.38
2017-05-22T21:10:25.907Z,5.06
2017-05-22T21:12:54.897Z,5.44
2017-05-22T21:15:23.941Z,5.40
2017-05-22T21:17:52.859Z,5.54
2017-05-22T21:20:21.782Z,6.08
2017-05-22T21:22:50.671Z,6.20
2017-05-22T21:25:19.605Z,5.70
2017-05-22T21:27:48.539Z,6.32
2017-05-22T21:30:17.445Z,8.04
2017-05-22T21:32:46.407Z,6.00
2017-05-22T21:35:15.343Z,6.52
2017-05-22T21:37:44.266Z,6.58
2017-05-22T21:40:13.194Z,6.98
2017-05-22T21:42:42.106Z,6.62
2017-05-22T21:45:11.019Z,6.58
2017-05-22T21:47:40.079Z,7.20
2017-05-22T21:50:09.071Z,7.12
2017-05-22T21:52:38.001Z,6.80
2017-05-22T21:55:06.944Z,6.92
2017-05-22T21:57:35.856Z,8.00
2017-05-22T22:00:04.776Z,7.72
2017-05-22T22:02:33.723Z,8.58
2017-05-22T22:05:02.632Z,6.86
2017-05-22T22:07:31.551Z,8.20
2017-05-22T22:10:00.599Z,9.28
2017-05-22T22:12:29.522Z,7.14
2017-05-22T22:14:58.428Z,8.00
2017-05-22T22:17:27.337Z,8.00
2017-05-22T22:19:56.292Z,8.32
2017-05-22T22:22:25.198Z,7.54
2017-05-22T22:24:54.103Z,6.64
2017-05-22T22:27:23.067Z,6.78
2017-05-22T22:29:51.959Z,7.86
2017-05-22T22:32:20.917Z,7.72
2017-05-22T22:34:49.835Z,7.76
2017-05-22T22:37:18.749Z,8.42
2017-05-22T22:39:47.684Z,7.96
2017-05-22T22:42:16.605Z,6.78
2017-05-22T22:44:45.579Z,6.82
2017-05-22T22:47:14.510Z,6.00
2017-05-22T22:49:43.436Z,6.36
2017-05-22T22:52:12.438Z,6.64
2017-05-22T22:54:41.377Z,6.10
2017-05-22T22:57:10.275Z,5.90
2017-05-22T22:59:39.187Z,6.12
2017-05-22T23:02:08.135Z,5.68
2017-05-22T23:04:37.036Z,5.84
2017-05-22T23:07:06.742Z,6.72
2017-05-22T23:09:35.658Z,6.74
2017-05-22T23:12:04.627Z,6.00
2017-05-22T23:14:33.871Z,7.28
2017-05-22T23:17:02.756Z,6.04
2017-05-22T23:19:31.691Z,6.62
2017-05-22T23:22:00.671Z,6.14
2017-05-22T23:24:29.571Z,5.46
2017-05-22T23:26:58.523Z,5.84
2017-05-22T23:29:27.459Z,6.56
2017-05-22T23:31:56.369Z,6.20
2017-05-22T23:34:25.311Z,6.20
2017-05-22T23:36:54.230Z,7.96
2017-05-22T23:39:23.175Z,6.20
2017-05-22T23:41:52.230Z,6.58
2017-05-22T23:44:21.126Z,6.10
2017-05-22T23:46:50.018Z,6.46
2017-05-22T23:49:18.984Z,6.66
2017-05-22T23:51:47.906Z,6.20
2017-05-22T23:54:16.818Z,6.44
2017-05-22T23:56:45.842Z,6.34
2017-05-22T23:59:14.850Z,7.36
